createdAt,value
2023-05-23T00:00:52.108Z,16.49
2023-05-23T00:05:59.816Z,16.87
2023-05-23T00:11:02.414Z,15.34
2023-05-23T00:16:09.654Z,14.33
2023-05-23T00:21:13.655Z,14.67
2023-05-23T00:26:16.286Z,16.58
2023-05-23T00:31:18.964Z,17.35
2023-05-23T00:36:22.248Z,16.01
2023-05-23T00:41:27.005Z,14.61
2023-05-23T00:46:31.849Z,14.99
2023-05-23T00:51:34.638Z,16.71
2023-05-23T00:56:38.807Z,17.34
2023-05-23T01:01:41.575Z,15.92
2023-05-23T01:06:46.663Z,14.61
2023-05-23T01:12:00.756Z,14.92
2023-05-23T01:17:25.287Z,16.72
2023-05-23T01:22:50.566Z,17.36
2023-05-23T01:27:57.043Z,15.74
2023-05-23T01:33:00.766Z,14.47
2023-05-23T01:38:03.571Z,14.67
2023-05-23T01:43:06.783Z,16.42
2023-05-23T01:48:11.912Z,17.17
2023-05-23T01:53:17.533Z,15.76
2023-05-23T01:58:20.328Z,14.25
2023-05-23T02:03:23.068Z,14.47
2023-05-23T02:08:25.865Z,16.20
2023-05-23T02:13:28.470Z,16.98
2023-05-23T02:18:31.096Z,15.73
2023-05-23T02:23:33.880Z,14.18
2023-05-23T02:28:36.531Z,14.71
2023-05-23T02:33:39.117Z,16.37
2023-05-23T02:38:41.714Z,16.88
2023-05-23T02:43:47.062Z,15.33
2023-05-23T02:48:50.155Z,14.87
2023-05-23T02:53:52.771Z,16.54
2023-05-23T02:58:55.389Z,16.61
2023-05-23T03:03:58.147Z,15.01
2023-05-23T03:09:01.571Z,14.92
2023-05-23T03:14:04.276Z,16.80
2023-05-23T03:19:06.965Z,16.70
2023-05-23T03:24:09.623Z,15.21
2023-05-23T03:29:12.531Z,14.30
2023-05-23T03:34:15.434Z,14.76
2023-05-23T03:39:18.342Z,16.82
2023-05-23T03:44:21.012Z,17.65
2023-05-23T03:49:23.688Z,16.36
2023-05-23T03:54:26.644Z,15.33
2023-05-23T03:59:29.317Z,15.73
2023-05-23T04:04:32.323Z,17.80
2023-05-23T04:09:35.031Z,17.59
2023-05-23T04:14:39.469Z,16.18
2023-05-23T04:19:43.299Z,16.26
2023-05-23T04:24:46.164Z,18.23
2023-05-23T04:29:48.862Z,17.68
2023-05-23T04:34:52.269Z,16.55
2023-05-23T04:39:55.127Z,16.01
2023-05-23T04:44:58.222Z,15.80
2023-05-23T04:50:01.055Z,15.72
2023-05-23T04:55:04.739Z,16.53
2023-05-23T05:00:11.517Z,18.78
2023-05-23T05:05:14.111Z,18.37
2023-05-23T05:10:17.836Z,17.71
2023-05-23T05:15:20.520Z,17.53
2023-05-23T05:20:23.317Z,17.53
2023-05-23T05:25:27.402Z,17.64
2023-05-23T05:30:30.636Z,17.81
2023-05-23T05:35:38.406Z,18.01
2023-05-23T05:40:41.212Z,18.21
2023-05-23T05:45:43.976Z,18.38
2023-05-23T05:50:46.930Z,18.60
2023-05-23T05:55:49.614Z,18.82
2023-05-23T06:00:53.622Z,19.04
2023-05-23T06:05:56.225Z,19.25
2023-05-23T06:10:58.859Z,19.41
2023-05-23T06:16:01.552Z,19.50
2023-05-23T06:21:04.243Z,19.67
2023-05-23T06:26:10.647Z,19.85
2023-05-23T06:31:13.476Z,20.06
2023-05-23T06:36:16.090Z,20.28
2023-05-23T06:41:18.823Z,20.48
2023-05-23T06:46:21.670Z,20.65
2023-05-23T06:51:24.414Z,20.86
2023-05-23T06:56:27.114Z,21.06
2023-05-23T07:01:29.772Z,21.26
2023-05-23T07:06:32.913Z,21.45
2023-05-23T07:11:35.620Z,21.65
2023-05-23T07:16:38.228Z,21.82
2023-05-23T07:21:40.920Z,21.97
2023-05-23T07:26:43.764Z,22.14
2023-05-23T07:31:46.459Z,22.38
2023-05-23T07:36:50.320Z,22.61
2023-05-23T07:41:52.986Z,22.74
2023-05-23T07:46:56.998Z,22.86
2023-05-23T07:51:59.704Z,22.97
2023-05-23T07:57:02.328Z,23.07
2023-05-23T08:02:05.044Z,23.26
2023-05-23T08:07:08.865Z,23.40
2023-05-23T08:12:11.681Z,23.51
2023-05-23T08:17:14.455Z,23.66
2023-05-23T08:22:17.166Z,23.86
2023-05-23T08:27:19.859Z,24.04
2023-05-23T08:32:22.677Z,24.15
2023-05-23T08:37:25.363Z,24.28
2023-05-23T08:42:27.977Z,24.47
2023-05-23T08:47:33.925Z,24.61
2023-05-23T08:52:43.018Z,24.74
2023-05-23T08:57:46.139Z,24.89
2023-05-23T09:02:48.773Z,25.05
2023-05-23T09:07:51.876Z,25.32
2023-05-23T09:12:54.555Z,25.49
2023-05-23T09:18:03.751Z,25.60
2023-05-23T09:23:06.419Z,25.78
2023-05-23T09:28:09.331Z,26.04
2023-05-23T09:33:14.215Z,26.32
2023-05-23T09:38:19.187Z,26.49
2023-05-23T09:43:22.070Z,26.71
2023-05-23T09:48:30.998Z,26.89
2023-05-23T09:53:33.580Z,27.01
2023-05-23T09:58:36.946Z,27.16
2023-05-23T10:03:59.946Z,27.44
2023-05-23T10:09:09.850Z,27.73
2023-05-23T10:14:13.388Z,27.85
2023-05-23T10:19:46.276Z,27.90
2023-05-23T10:24:49.461Z,28.15
2023-05-23T10:29:52.221Z,28.48
2023-05-23T10:35:10.623Z,28.78
2023-05-23T10:40:31.080Z,28.85
2023-05-23T10:45:42.620Z,28.84
2023-05-23T10:50:46.772Z,28.80
2023-05-23T10:55:49.407Z,28.73
2023-05-23T11:00:53.135Z,28.87
2023-05-23T11:05:55.761Z,29.21
2023-05-23T11:11:03.223Z,29.45
2023-05-23T11:16:27.815Z,29.79
2023-05-23T11:21:32.093Z,30.12
2023-05-23T11:26:34.736Z,30.30
2023-05-23T11:31:38.304Z,30.46
2023-05-23T11:36:41.370Z,30.35
2023-05-23T11:41:44.091Z,30.28
2023-05-23T11:47:00.453Z,30.16
2023-05-23T11:52:03.889Z,29.97
2023-05-23T11:57:06.575Z,29.45
2023-05-23T12:02:09.272Z,29.12
2023-05-23T12:07:11.942Z,28.81
2023-05-23T12:12:15.032Z,28.59
2023-05-23T12:17:17.677Z,28.54
2023-05-23T12:22:26.891Z,28.65
2023-05-23T12:27:32.371Z,28.92
2023-05-23T12:32:39.772Z,29.36
2023-05-23T12:37:45.950Z,29.75
2023-05-23T12:42:52.883Z,29.94
2023-05-23T12:47:55.676Z,30.04
2023-05-23T12:52:59.041Z,30.11
2023-05-23T12:58:01.627Z,30.20
2023-05-23T13:03:06.582Z,30.53
2023-05-23T13:08:09.397Z,30.69
2023-05-23T13:13:12.286Z,30.68
2023-05-23T13:18:14.997Z,30.76
2023-05-23T13:23:17.745Z,30.84
2023-05-23T13:28:20.604Z,30.97
2023-05-23T13:33:23.670Z,31.00
2023-05-23T13:38:27.640Z,31.26
2023-05-23T13:43:31.192Z,31.35
2023-05-23T13:48:33.884Z,31.28
2023-05-23T13:53:36.556Z,30.80
2023-05-23T13:58:39.124Z,30.22
2023-05-23T14:03:41.807Z,29.70
2023-05-23T14:08:44.489Z,29.37
2023-05-23T14:13:47.142Z,29.09
2023-05-23T14:18:50.061Z,28.75
2023-05-23T14:23:52.679Z,28.36
2023-05-23T14:28:55.417Z,27.85
2023-05-23T14:33:58.236Z,27.42
2023-05-23T14:39:01.416Z,27.25
2023-05-23T14:44:04.392Z,27.28
2023-05-23T14:49:07.125Z,27.34
2023-05-23T14:54:09.870Z,27.42
2023-05-23T14:59:12.791Z,27.35
2023-05-23T15:04:15.749Z,27.25
2023-05-23T15:09:19.094Z,27.17
2023-05-23T15:14:22.889Z,27.11
2023-05-23T15:19:25.520Z,27.05
2023-05-23T15:24:28.533Z,26.97
2023-05-23T15:29:33.791Z,26.90
2023-05-23T15:34:36.529Z,26.80
2023-05-23T15:39:39.165Z,26.88
2023-05-23T15:44:41.869Z,27.55
2023-05-23T15:49:44.663Z,29.72
2023-05-23T15:54:47.283Z,32.30
2023-05-23T15:59:49.871Z,34.45
2023-05-23T16:04:52.483Z,35.81
2023-05-23T16:09:55.154Z,36.01
2023-05-23T16:14:57.930Z,36.00
2023-05-23T16:20:02.755Z,35.31
2023-05-23T16:25:06.732Z,33.80
2023-05-23T16:30:09.981Z,32.24
2023-05-23T16:35:12.926Z,30.85
2023-05-23T16:40:17.661Z,29.52
2023-05-23T16:45:21.853Z,28.37
2023-05-23T16:50:24.555Z,27.49
2023-05-23T16:55:27.188Z,26.67
2023-05-23T17:00:29.855Z,25.97
2023-05-23T17:05:33.823Z,25.40
2023-05-23T17:10:36.987Z,24.93
2023-05-23T17:15:40.111Z,24.54
2023-05-23T17:20:43.135Z,24.15
2023-05-23T17:25:46.570Z,23.80
2023-05-23T17:30:51.759Z,23.46
2023-05-23T17:35:55.187Z,23.17
2023-05-23T17:40:58.140Z,22.90
2023-05-23T17:46:01.248Z,22.65
2023-05-23T17:51:04.250Z,22.43
2023-05-23T17:56:09.219Z,22.24
2023-05-23T18:01:13.665Z,22.06
2023-05-23T18:06:16.902Z,21.91
2023-05-23T18:11:21.470Z,21.75
2023-05-23T18:16:24.140Z,21.59
2023-05-23T18:21:27.423Z,21.44
2023-05-23T18:26:30.353Z,21.27
2023-05-23T18:31:33.270Z,21.08
2023-05-23T18:36:36.606Z,20.90
2023-05-23T18:41:39.781Z,20.73
2023-05-23T18:46:42.736Z,20.55
2023-05-23T18:51:47.429Z,20.39
2023-05-23T18:56:50.440Z,20.24
2023-05-23T19:01:54.335Z,20.11
2023-05-23T19:06:57.123Z,19.98
2023-05-23T19:12:00.645Z,19.87
2023-05-23T19:17:05.824Z,19.77
2023-05-23T19:22:09.573Z,19.66
2023-05-23T19:27:12.471Z,19.57
2023-05-23T19:32:16.618Z,19.47
2023-05-23T19:37:20.907Z,19.36
2023-05-23T19:42:24.064Z,19.24
2023-05-23T19:47:29.555Z,19.13
2023-05-23T19:52:33.431Z,19.05
2023-05-23T19:57:37.127Z,18.97
2023-05-23T20:02:39.787Z,18.89
2023-05-23T20:07:43.501Z,18.82
2023-05-23T20:12:47.924Z,18.73
2023-05-23T20:17:51.026Z,18.65
2023-05-23T20:22:53.716Z,18.57
2023-05-23T20:27:56.604Z,18.49
2023-05-23T20:32:59.268Z,18.39
2023-05-23T20:38:02.278Z,18.28
2023-05-23T20:43:05.101Z,18.16
2023-05-23T20:48:07.957Z,18.06
2023-05-23T20:53:10.862Z,17.98
2023-05-23T20:58:13.429Z,17.91
2023-05-23T21:03:16.807Z,17.85
2023-05-23T21:08:19.615Z,17.79
2023-05-23T21:13:22.202Z,17.74
2023-05-23T21:18:24.819Z,17.69
2023-05-23T21:23:27.450Z,17.64
2023-05-23T21:28:30.412Z,17.60
2023-05-23T21:33:33.553Z,17.56
2023-05-23T21:38:37.507Z,17.51
2023-05-23T21:43:40.360Z,17.48
2023-05-23T21:48:42.990Z,17.45
2023-05-23T21:53:45.648Z,17.42
2023-05-23T21:58:48.210Z,17.38
2023-05-23T22:03:51.278Z,17.35
2023-05-23T22:08:54.251Z,17.30
2023-05-23T22:13:56.827Z,17.26
2023-05-23T22:18:59.436Z,17.21
2023-05-23T22:24:02.791Z,17.15
2023-05-23T22:29:05.477Z,17.09
2023-05-23T22:34:08.062Z,17.02
2023-05-23T22:39:10.698Z,16.94
2023-05-23T22:44:13.269Z,16.87
2023-05-23T22:49:15.835Z,16.81
2023-05-23T22:54:18.600Z,16.77
2023-05-23T22:59:21.228Z,16.76
2023-05-23T23:04:25.436Z,16.75
2023-05-23T23:09:28.156Z,16.73
2023-05-23T23:14:30.937Z,16.70
2023-05-23T23:19:35.255Z,16.67
2023-05-23T23:24:37.854Z,16.64
2023-05-23T23:29:40.463Z,16.62
2023-05-23T23:34:43.015Z,16.58
2023-05-23T23:39:45.788Z,16.54
2023-05-23T23:44:48.634Z,16.51
2023-05-23T23:49:51.338Z,16.44
2023-05-23T23:54:53.950Z,16.37
2023-05-23T23:59:56.787Z,16.30
